createdAt,value
2019-01-25T00:00:41.516Z,51.70
2019-01-25T00:03:11.032Z,44.63
2019-01-25T00:05:40.352Z,44.63
2019-01-25T00:08:09.680Z,48.80
2019-01-25T00:10:38.944Z,53.77
2019-01-25T00:13:08.312Z,57.00
2019-01-25T00:15:37.552Z,44.17
2019-01-25T00:18:06.992Z,47.80
2019-01-25T00:20:36.284Z,46.30
2019-01-25T00:23:05.555Z,50.07
2019-01-25T00:25:34.936Z,54.73
2019-01-25T00:28:04.524Z,45.63
2019-01-25T00:30:33.952Z,42.70
2019-01-25T00:33:03.204Z,53.30
2019-01-25T00:35:32.539Z,44.23
2019-01-25T00:38:01.920Z,54.57
2019-01-25T00:40:31.256Z,47.53
2019-01-25T00:43:00.544Z,52.43
2019-01-25T00:45:31.756Z,54.70
2019-01-25T00:48:01.095Z,52.90
2019-01-25T00:50:30.375Z,61.70
2019-01-25T00:52:59.802Z,66.43
2019-01-25T00:55:29.083Z,59.10
2019-01-25T00:57:58.453Z,59.83
2019-01-25T01:00:27.731Z,61.67
2019-01-25T01:02:57.935Z,56.43
2019-01-25T01:05:27.259Z,63.33
2019-01-25T01:07:56.892Z,71.80
2019-01-25T01:10:26.188Z,62.83
2019-01-25T01:12:55.471Z,74.60
2019-01-25T01:15:24.711Z,64.77
2019-01-25T01:17:54.015Z,72.97
2019-01-25T01:20:23.259Z,76.47
2019-01-25T01:22:52.551Z,64.83
2019-01-25T01:25:21.795Z,67.30
2019-01-25T01:27:51.083Z,62.53
2019-01-25T01:30:22.583Z,61.97
2019-01-25T01:32:52.524Z,66.70
2019-01-25T01:35:21.775Z,56.17
2019-01-25T01:37:51.851Z,67.73
2019-01-25T01:40:23.320Z,59.40
2019-01-25T01:42:53.907Z,64.27
2019-01-25T01:45:23.590Z,57.60
2019-01-25T01:47:52.946Z,57.93
2019-01-25T01:50:22.202Z,54.07
2019-01-25T01:52:52.175Z,49.47
2019-01-25T01:55:21.450Z,55.17
2019-01-25T01:57:50.722Z,58.63
2019-01-25T02:00:24.910Z,61.53
2019-01-25T02:02:54.482Z,50.93
2019-01-25T02:05:23.914Z,65.23
2019-01-25T02:07:53.248Z,60.77
2019-01-25T02:10:29.563Z,55.70
2019-01-25T02:12:57.722Z,62.70
2019-01-25T02:15:26.994Z,57.07
2019-01-25T02:17:56.282Z,59.07
2019-01-25T02:20:28.131Z,61.23
2019-01-25T02:22:57.758Z,50.83
2019-01-25T02:25:27.057Z,47.67
2019-01-25T02:27:56.354Z,53.33
2019-01-25T02:30:26.846Z,49.07
2019-01-25T02:32:56.265Z,55.20
2019-01-25T02:35:25.610Z,65.40
2019-01-25T02:37:55.178Z,61.63
2019-01-25T02:40:25.933Z,54.30
2019-01-25T02:42:55.528Z,46.13
2019-01-25T02:45:24.803Z,56.73
2019-01-25T02:47:54.110Z,50.80
2019-01-25T02:50:23.408Z,56.30
2019-01-25T02:52:52.693Z,54.90
2019-01-25T02:55:22.062Z,61.33
2019-01-25T02:57:51.337Z,65.50
2019-01-25T03:00:23.045Z,55.63
2019-01-25T03:02:52.594Z,45.60
2019-01-25T03:05:22.554Z,51.50
2019-01-25T03:07:51.958Z,46.27
2019-01-25T03:10:28.611Z,57.67
2019-01-25T03:12:52.744Z,58.13
2019-01-25T03:15:24.173Z,52.13
2019-01-25T03:17:53.697Z,50.83
2019-01-25T03:20:22.964Z,44.37
2019-01-25T03:22:52.234Z,51.30
2019-01-25T03:25:24.219Z,54.17
2019-01-25T03:27:53.481Z,56.40
2019-01-25T03:30:23.598Z,51.07
2019-01-25T03:32:53.003Z,47.63
2019-01-25T03:35:24.437Z,45.23
2019-01-25T03:37:54.177Z,49.10
2019-01-25T03:40:25.641Z,50.50
2019-01-25T03:42:55.052Z,55.57
2019-01-25T03:45:24.955Z,53.60
2019-01-25T03:47:54.484Z,61.70
2019-01-25T03:50:26.538Z,54.40
2019-01-25T03:52:56.260Z,51.97
2019-01-25T03:55:26.375Z,62.17
2019-01-25T03:57:55.634Z,50.93
2019-01-25T04:00:26.928Z,53.87
2019-01-25T04:02:56.188Z,53.33
2019-01-25T04:05:25.740Z,50.13
2019-01-25T04:07:54.985Z,58.37
2019-01-25T04:10:28.908Z,59.37
2019-01-25T04:12:58.194Z,48.37
2019-01-25T04:15:29.996Z,54.83
2019-01-25T04:17:59.279Z,54.63
2019-01-25T04:23:04.097Z,82.03
2019-01-25T04:25:33.465Z,82.10
2019-01-25T04:28:02.712Z,69.30
2019-01-25T04:30:32.936Z,71.07
2019-01-25T04:33:02.348Z,69.03
2019-01-25T04:35:31.636Z,59.43
2019-01-25T04:38:00.998Z,55.67
2019-01-25T04:40:30.284Z,62.20
2019-01-25T04:42:59.661Z,59.47
2019-01-25T04:45:28.976Z,55.43
2019-01-25T04:47:58.259Z,55.93
2019-01-25T04:50:27.820Z,55.80
2019-01-25T04:52:57.116Z,49.83
2019-01-25T04:55:28.297Z,56.33
2019-01-25T04:58:09.343Z,59.13
2019-01-25T05:00:38.599Z,55.80
2019-01-25T05:03:07.961Z,54.87
2019-01-25T05:05:37.307Z,52.10
2019-01-25T05:08:26.976Z,46.77
2019-01-25T05:10:56.224Z,48.50
2019-01-25T05:13:25.514Z,62.53
2019-01-25T05:15:54.780Z,65.53
2019-01-25T05:18:24.068Z,45.97
2019-01-25T05:20:53.341Z,61.00
2019-01-25T05:23:22.663Z,51.23
2019-01-25T05:25:51.955Z,56.90
2019-01-25T05:28:21.591Z,49.80
2019-01-25T05:31:01.849Z,50.13
2019-01-25T05:33:31.228Z,46.20
2019-01-25T05:36:00.580Z,53.33
2019-01-25T05:38:29.862Z,48.60
2019-01-25T05:40:59.123Z,47.87
2019-01-25T05:43:31.327Z,50.37
2019-01-25T05:46:00.603Z,54.37
2019-01-25T05:48:30.348Z,49.57
2019-01-25T05:51:04.335Z,52.70
2019-01-25T05:53:33.964Z,46.63
2019-01-25T05:56:03.240Z,42.53
2019-01-25T05:58:32.515Z,54.80
2019-01-25T06:01:02.316Z,50.80
2019-01-25T06:03:31.596Z,51.27
2019-01-25T06:06:02.450Z,45.90
2019-01-25T06:08:32.755Z,66.60
2019-01-25T06:11:10.164Z,56.37
2019-01-25T06:13:40.527Z,67.73
2019-01-25T06:16:09.879Z,61.97
2019-01-25T06:18:39.155Z,57.97
2019-01-25T06:21:08.407Z,66.30
2019-01-25T06:23:37.714Z,97.17
2019-01-25T06:26:08.454Z,83.33
2019-01-25T06:28:37.729Z,67.03
2019-01-25T06:31:07.113Z,65.70
2019-01-25T06:33:36.398Z,54.30
2019-01-25T06:36:07.278Z,53.07
2019-01-25T06:38:37.020Z,46.40
2019-01-25T06:41:06.961Z,55.30
2019-01-25T06:43:36.213Z,47.53
2019-01-25T06:46:06.053Z,68.77
2019-01-25T06:48:35.425Z,72.17
2019-01-25T06:51:05.214Z,65.33
2019-01-25T06:53:34.454Z,56.70
2019-01-25T06:56:04.405Z,51.27
2019-01-25T06:58:55.473Z,58.33
2019-01-25T07:01:28.701Z,67.97
2019-01-25T07:03:57.945Z,85.53
2019-01-25T07:06:27.217Z,65.77
2019-01-25T07:08:56.557Z,63.57
2019-01-25T07:11:25.897Z,63.60
2019-01-25T07:13:55.218Z,68.07
2019-01-25T07:16:24.586Z,61.17
2019-01-25T07:18:54.033Z,64.47
2019-01-25T07:21:23.326Z,51.30
2019-01-25T07:23:52.605Z,69.73
2019-01-25T07:26:21.955Z,65.07
2019-01-25T07:28:51.253Z,69.30
2019-01-25T07:31:20.580Z,69.13
2019-01-25T07:33:49.817Z,59.23
2019-01-25T07:36:19.290Z,64.13
2019-01-25T07:38:48.813Z,62.43
2019-01-25T07:41:18.081Z,82.23
2019-01-25T07:43:47.611Z,74.30
2019-01-25T07:46:16.833Z,66.30
2019-01-25T07:48:46.226Z,55.63
2019-01-25T07:51:15.549Z,55.50
2019-01-25T07:53:44.875Z,58.27
2019-01-25T07:56:14.249Z,68.37
2019-01-25T07:58:43.480Z,65.23
2019-01-25T08:01:12.780Z,59.97
2019-01-25T08:03:42.020Z,70.23
2019-01-25T08:06:11.311Z,75.60
2019-01-25T08:08:40.589Z,77.90
2019-01-25T08:11:09.867Z,91.97
2019-01-25T08:13:39.117Z,78.33
2019-01-25T08:16:08.413Z,76.60
2019-01-25T08:18:38.025Z,73.23
2019-01-25T08:21:07.292Z,70.03
2019-01-25T08:23:36.572Z,55.23
2019-01-25T08:26:06.087Z,53.40
2019-01-25T08:28:35.379Z,60.40
2019-01-25T08:31:04.613Z,65.27
2019-01-25T08:33:33.905Z,61.87
2019-01-25T08:36:03.222Z,58.47
2019-01-25T08:38:32.489Z,63.97
2019-01-25T08:41:01.764Z,63.17
2019-01-25T08:43:31.112Z,65.80
2019-01-25T08:46:00.457Z,62.07
2019-01-25T08:48:29.727Z,73.63
2019-01-25T08:50:59.416Z,84.43
2019-01-25T08:53:28.672Z,78.23
2019-01-25T08:55:58.160Z,80.07
2019-01-25T08:58:27.527Z,68.63
2019-01-25T09:00:56.864Z,71.37
2019-01-25T09:03:26.163Z,71.80
2019-01-25T09:05:55.448Z,69.40
2019-01-25T09:08:24.720Z,74.73
2019-01-25T09:10:53.991Z,63.17
2019-01-25T09:13:23.315Z,62.33
2019-01-25T09:15:52.609Z,74.13
2019-01-25T09:18:21.863Z,71.90
2019-01-25T09:20:51.118Z,72.07
2019-01-25T09:23:20.411Z,75.13
2019-01-25T09:25:49.767Z,75.50
2019-01-25T09:28:19.079Z,73.10
2019-01-25T09:30:48.359Z,63.20
2019-01-25T09:33:17.608Z,71.10
2019-01-25T09:35:46.890Z,73.73
2019-01-25T09:38:16.260Z,61.37
2019-01-25T09:40:45.538Z,65.63
2019-01-25T09:43:14.815Z,66.43
2019-01-25T09:45:44.039Z,59.30
2019-01-25T09:48:13.310Z,69.10
2019-01-25T09:50:42.483Z,60.87
2019-01-25T09:53:11.874Z,42.53
2019-01-25T09:55:41.118Z,33.07
2019-01-25T09:58:12.626Z,38.40
2019-01-25T10:01:08.115Z,35.70
2019-01-25T10:03:37.406Z,33.63
2019-01-25T10:06:06.676Z,35.77
2019-01-25T10:08:36.127Z,32.97
2019-01-25T10:11:05.502Z,31.67
2019-01-25T10:13:34.793Z,32.97
2019-01-25T10:16:04.250Z,39.90
2019-01-25T10:18:33.530Z,31.57
2019-01-25T10:21:02.827Z,33.50
2019-01-25T10:23:32.071Z,34.50
2019-01-25T10:26:01.386Z,35.87
2019-01-25T10:28:30.662Z,34.03
2019-01-25T10:30:59.954Z,39.60
2019-01-25T10:33:30.050Z,51.30
2019-01-25T10:35:59.307Z,25.10
2019-01-25T10:38:28.562Z,33.63
2019-01-25T10:40:57.851Z,30.70
2019-01-25T10:43:27.210Z,25.17
2019-01-25T10:45:56.454Z,38.70
2019-01-25T10:48:25.734Z,27.83
2019-01-25T10:50:55.034Z,31.30
2019-01-25T10:53:24.341Z,34.67
2019-01-25T10:55:53.898Z,35.77
2019-01-25T10:58:23.497Z,31.93
2019-01-25T11:00:52.829Z,33.93
2019-01-25T11:03:22.129Z,37.40
2019-01-25T11:05:51.389Z,46.80
2019-01-25T11:08:20.617Z,41.90
2019-01-25T11:10:49.809Z,44.67
2019-01-25T11:13:19.054Z,42.73
2019-01-25T11:15:48.430Z,143.03
2019-01-25T11:18:17.728Z,248.80
2019-01-25T11:20:47.053Z,51.53
2019-01-25T11:23:16.301Z,78.20
2019-01-25T11:25:45.601Z,49.23
2019-01-25T11:28:14.921Z,48.43
2019-01-25T11:30:44.169Z,161.43
2019-01-25T11:33:13.457Z,30.70
2019-01-25T11:35:42.797Z,35.77
2019-01-25T11:38:12.086Z,42.53
2019-01-25T11:40:43.265Z,41.10
2019-01-25T11:43:12.537Z,49.47
2019-01-25T11:45:42.117Z,35.93
2019-01-25T11:48:14.667Z,150.47
2019-01-25T11:50:44.001Z,292.93
2019-01-25T11:53:13.365Z,341.77
2019-01-25T11:55:42.657Z,145.17
2019-01-25T11:58:12.005Z,40.70
2019-01-25T12:00:44.584Z,40.03
2019-01-25T12:03:13.892Z,37.40
2019-01-25T12:05:43.076Z,44.03
2019-01-25T12:08:12.834Z,43.27
2019-01-25T12:10:42.671Z,47.27
2019-01-25T12:13:16.336Z,62.87
2019-01-25T12:15:44.690Z,52.97
2019-01-25T12:18:14.055Z,63.30
2019-01-25T12:20:43.250Z,43.33
2019-01-25T12:23:12.526Z,44.80
2019-01-25T12:25:41.911Z,49.50
2019-01-25T12:28:11.198Z,44.03
2019-01-25T12:30:40.938Z,52.43
2019-01-25T12:33:10.630Z,44.73
2019-01-25T12:35:42.082Z,41.20
2019-01-25T12:38:11.366Z,45.30
2019-01-25T12:40:42.412Z,38.37
2019-01-25T12:43:11.602Z,37.60
2019-01-25T12:45:40.945Z,33.43
2019-01-25T12:48:10.277Z,41.27
2019-01-25T12:50:42.427Z,41.90
2019-01-25T12:53:11.790Z,39.10
2019-01-25T12:55:41.422Z,36.50
2019-01-25T12:58:10.709Z,38.97
2019-01-25T13:00:42.172Z,35.60
2019-01-25T13:03:11.653Z,43.17
2019-01-25T13:05:41.229Z,38.47
2019-01-25T13:08:10.481Z,35.73
2019-01-25T13:10:39.805Z,34.93
2019-01-25T13:13:09.085Z,46.77
2019-01-25T13:15:38.437Z,43.20
2019-01-25T13:18:08.181Z,43.33
2019-01-25T13:20:39.469Z,34.27
2019-01-25T13:23:08.420Z,41.77
2019-01-25T13:25:37.666Z,37.63
2019-01-25T13:28:06.983Z,40.60
2019-01-25T13:30:36.397Z,38.17
2019-01-25T13:33:05.738Z,36.67
2019-01-25T13:35:34.990Z,38.30
2019-01-25T13:38:04.485Z,33.70
2019-01-25T13:40:33.732Z,37.60
2019-01-25T13:43:02.973Z,35.03
2019-01-25T13:45:32.257Z,36.60
2019-01-25T13:48:01.549Z,37.63
2019-01-25T13:50:30.918Z,43.50
2019-01-25T13:53:00.406Z,36.50
2019-01-25T13:55:29.708Z,39.80
2019-01-25T13:57:59.077Z,43.10
2019-01-25T14:00:30.244Z,38.17
2019-01-25T14:02:59.526Z,40.20
2019-01-25T14:05:28.767Z,33.57
2019-01-25T14:07:58.448Z,38.03
2019-01-25T14:10:29.869Z,32.90
2019-01-25T14:12:59.150Z,33.30
2019-01-25T14:15:28.404Z,40.20
2019-01-25T14:17:57.691Z,39.50
2019-01-25T14:20:28.804Z,37.17
2019-01-25T14:22:58.044Z,43.13
2019-01-25T14:25:27.420Z,40.40
2019-01-25T14:27:56.709Z,46.33
2019-01-25T14:30:38.072Z,41.40
2019-01-25T14:33:08.077Z,49.73
2019-01-25T14:35:38.104Z,46.57
2019-01-25T14:38:08.620Z,80.20
2019-01-25T14:40:37.864Z,57.40
2019-01-25T14:43:07.148Z,39.67
2019-01-25T14:45:37.504Z,84.77
2019-01-25T14:48:07.548Z,44.97
2019-01-25T14:50:36.820Z,45.20
2019-01-25T14:53:07.249Z,54.10
2019-01-25T14:55:36.540Z,48.67
2019-01-25T14:58:06.578Z,48.17
2019-01-25T15:00:35.917Z,47.60
2019-01-25T15:03:05.410Z,71.97
2019-01-25T15:05:34.618Z,53.37
2019-01-25T15:08:03.911Z,61.20
2019-01-25T15:10:35.018Z,56.20
2019-01-25T15:13:04.889Z,57.47
2019-01-25T15:15:34.247Z,52.33
2019-01-25T15:18:03.550Z,46.23
2019-01-25T15:20:32.794Z,39.37
2019-01-25T15:23:02.142Z,48.67
2019-01-25T15:25:31.378Z,47.03
2019-01-25T15:28:00.674Z,45.27
2019-01-25T15:30:31.858Z,46.70
2019-01-25T15:33:01.283Z,57.60
2019-01-25T15:35:30.526Z,52.10
2019-01-25T15:37:59.810Z,40.50
2019-01-25T15:40:29.070Z,37.63
2019-01-25T15:42:58.318Z,44.00
2019-01-25T15:45:27.634Z,47.57
2019-01-25T15:47:56.881Z,58.60
2019-01-25T15:50:28.637Z,63.70
2019-01-25T15:52:57.901Z,67.33
2019-01-25T15:55:27.513Z,76.10
2019-01-25T15:57:56.769Z,76.27
2019-01-25T16:00:27.565Z,64.00
2019-01-25T16:02:56.847Z,62.13
2019-01-25T16:05:26.233Z,60.90
2019-01-25T16:07:55.813Z,48.73
2019-01-25T16:10:25.053Z,49.70
2019-01-25T16:12:54.377Z,46.20
2019-01-25T16:15:28.505Z,48.97
2019-01-25T16:17:57.814Z,53.27
2019-01-25T16:20:27.089Z,49.67
2019-01-25T16:22:56.958Z,54.37
2019-01-25T16:25:28.409Z,58.57
2019-01-25T16:27:58.021Z,61.87
2019-01-25T16:30:29.237Z,65.83
2019-01-25T16:32:58.537Z,56.53
2019-01-25T16:35:27.796Z,63.13
2019-01-25T16:37:57.037Z,65.60
2019-01-25T16:40:27.280Z,68.27
2019-01-25T16:42:56.532Z,63.07
2019-01-25T16:45:28.645Z,66.13
2019-01-25T16:47:57.900Z,55.13
2019-01-25T16:50:27.377Z,61.00
2019-01-25T16:52:56.792Z,54.37
2019-01-25T16:55:25.988Z,62.80
2019-01-25T16:57:55.376Z,59.43
2019-01-25T17:00:32.564Z,57.43
2019-01-25T17:03:01.800Z,64.00
2019-01-25T17:05:31.264Z,65.10
2019-01-25T17:08:00.540Z,68.17
2019-01-25T17:10:30.094Z,73.40
2019-01-25T17:12:59.385Z,66.70
2019-01-25T17:15:28.744Z,73.27
2019-01-25T17:17:58.022Z,80.67
2019-01-25T17:20:27.371Z,72.23
2019-01-25T17:22:56.882Z,73.23
2019-01-25T17:25:26.112Z,82.30
2019-01-25T17:27:55.393Z,65.03
2019-01-25T17:30:26.597Z,78.57
2019-01-25T17:32:56.848Z,81.47
2019-01-25T17:35:26.144Z,82.07
2019-01-25T17:37:55.379Z,86.27
2019-01-25T17:40:32.975Z,84.97
2019-01-25T17:43:02.263Z,75.03
2019-01-25T17:45:31.617Z,88.97
2019-01-25T17:48:00.867Z,87.80
2019-01-25T17:50:30.219Z,66.63
2019-01-25T17:52:59.507Z,66.00
2019-01-25T17:55:28.871Z,75.93
2019-01-25T17:57:58.126Z,84.53
2019-01-25T18:00:47.965Z,80.47
2019-01-25T18:03:17.564Z,70.60
2019-01-25T18:05:46.888Z,73.10
2019-01-25T18:08:16.196Z,61.73
2019-01-25T18:10:45.577Z,90.80
2019-01-25T18:13:14.954Z,74.83
2019-01-25T18:15:44.216Z,66.80
2019-01-25T18:18:13.566Z,79.77
2019-01-25T18:20:42.810Z,65.97
2019-01-25T18:23:12.190Z,75.50
2019-01-25T18:25:59.702Z,76.07
2019-01-25T18:28:35.854Z,93.53
2019-01-25T18:31:12.958Z,79.47
2019-01-25T18:33:42.370Z,71.07
2019-01-25T18:36:11.613Z,85.60
2019-01-25T18:38:40.888Z,85.60
2019-01-25T18:41:10.242Z,65.03
2019-01-25T18:43:39.402Z,113.40
2019-01-25T18:46:08.670Z,75.33
2019-01-25T18:48:37.970Z,79.27
2019-01-25T18:51:07.198Z,82.60
2019-01-25T18:53:36.487Z,74.50
2019-01-25T18:56:07.342Z,70.93
2019-01-25T18:58:36.613Z,70.83
2019-01-25T19:01:06.077Z,94.73
2019-01-25T19:03:35.434Z,94.80
2019-01-25T19:06:04.985Z,67.53
2019-01-25T19:08:34.254Z,69.33
2019-01-25T19:11:03.529Z,72.17
2019-01-25T19:13:32.841Z,72.27
2019-01-25T19:16:02.119Z,71.53
2019-01-25T19:18:31.401Z,117.17
2019-01-25T19:21:00.726Z,94.70
2019-01-25T19:23:30.018Z,105.23
2019-01-25T19:25:59.279Z,74.43
2019-01-25T19:28:28.546Z,85.93
2019-01-25T19:30:57.829Z,83.30
2019-01-25T19:33:27.173Z,78.90
2019-01-25T19:35:56.469Z,90.73
2019-01-25T19:38:26.012Z,101.57
2019-01-25T19:40:55.325Z,99.83
2019-01-25T19:43:24.617Z,115.47
2019-01-25T19:45:53.917Z,236.90
2019-01-25T19:48:23.157Z,153.80
2019-01-25T19:50:52.393Z,137.53
2019-01-25T19:53:21.677Z,100.50
2019-01-25T19:55:50.965Z,105.60
2019-01-25T19:58:20.781Z,109.03
2019-01-25T20:00:50.060Z,103.23
2019-01-25T20:03:19.301Z,119.57
2019-01-25T20:05:48.813Z,112.33
2019-01-25T20:08:18.155Z,182.60
2019-01-25T20:10:47.792Z,165.40
2019-01-25T20:13:17.016Z,191.83
2019-01-25T20:15:46.283Z,179.80
2019-01-25T20:18:15.579Z,131.07
2019-01-25T20:20:44.911Z,131.73
2019-01-25T20:23:14.232Z,167.00
2019-01-25T20:25:43.599Z,260.80
2019-01-25T20:28:12.871Z,154.27
2019-01-25T20:30:49.429Z,132.60
2019-01-25T20:33:13.159Z,140.30
2019-01-25T20:35:43.214Z,143.80
2019-01-25T20:38:12.547Z,148.57
2019-01-25T20:40:42.225Z,117.90
2019-01-25T20:43:12.974Z,132.10
2019-01-25T20:45:42.658Z,103.90
2019-01-25T20:48:12.031Z,114.50
2019-01-25T20:50:41.319Z,108.60
2019-01-25T20:53:11.627Z,98.13
2019-01-25T20:55:41.058Z,88.33
2019-01-25T20:58:10.502Z,94.90
2019-01-25T21:00:40.286Z,90.63
2019-01-25T21:03:14.500Z,93.87
2019-01-25T21:05:43.871Z,84.90
2019-01-25T21:08:13.122Z,82.53
2019-01-25T21:10:42.400Z,79.47
2019-01-25T21:13:11.779Z,80.17
2019-01-25T21:15:41.167Z,78.67
2019-01-25T21:18:10.379Z,68.63
2019-01-25T21:20:45.315Z,67.20
2019-01-25T21:23:14.556Z,67.53
2019-01-25T21:25:43.799Z,77.43
2019-01-25T21:28:13.277Z,86.77
2019-01-25T21:30:42.581Z,75.67
2019-01-25T21:33:11.936Z,67.57
2019-01-25T21:35:41.214Z,68.23
2019-01-25T21:40:40.560Z,74.73
2019-01-25T21:43:09.784Z,87.03
2019-01-25T21:45:43.222Z,80.27
2019-01-25T21:48:15.525Z,72.00
2019-01-25T21:50:45.956Z,67.57
2019-01-25T21:53:15.352Z,102.63
2019-01-25T21:55:44.680Z,77.77
2019-01-25T21:58:14.068Z,75.60
2019-01-25T22:00:43.372Z,71.37
2019-01-25T22:03:12.657Z,70.60
2019-01-25T22:05:41.895Z,73.83
2019-01-25T22:08:11.207Z,76.57
2019-01-25T22:10:46.031Z,81.23
2019-01-25T22:13:15.352Z,76.97
2019-01-25T22:15:50.722Z,71.93
2019-01-25T22:18:15.531Z,81.70
2019-01-25T22:20:44.799Z,78.70
2019-01-25T22:23:14.152Z,76.90
2019-01-25T22:25:43.459Z,64.93
2019-01-25T22:28:12.747Z,73.80
2019-01-25T22:30:41.986Z,71.57
2019-01-25T22:33:11.255Z,67.83
2019-01-25T22:35:40.615Z,66.53
2019-01-25T22:38:09.926Z,66.17
2019-01-25T22:40:39.226Z,65.63
2019-01-25T22:43:08.438Z,62.47
2019-01-25T22:45:38.086Z,73.93
2019-01-25T22:48:07.518Z,79.00
2019-01-25T22:50:37.462Z,66.60
2019-01-25T22:53:06.813Z,100.60
2019-01-25T22:55:36.033Z,60.63
2019-01-25T22:58:05.697Z,75.60
2019-01-25T23:01:02.643Z,85.80
2019-01-25T23:03:48.689Z,67.10
2019-01-25T23:06:40.373Z,70.10
2019-01-25T23:09:32.564Z,62.90
2019-01-25T23:12:01.769Z,57.90
2019-01-25T23:14:31.005Z,55.27
2019-01-25T23:17:00.252Z,56.53
2019-01-25T23:19:29.484Z,65.87
2019-01-25T23:21:58.760Z,56.17
2019-01-25T23:24:27.924Z,63.77
2019-01-25T23:26:57.207Z,53.17
2019-01-25T23:29:26.469Z,53.43
2019-01-25T23:31:55.757Z,55.27
2019-01-25T23:34:24.987Z,56.10
2019-01-25T23:36:54.231Z,46.43
2019-01-25T23:39:23.531Z,50.60
2019-01-25T23:41:52.833Z,50.43
2019-01-25T23:44:22.135Z,46.50
2019-01-25T23:46:51.563Z,42.63
2019-01-25T23:49:20.822Z,47.03
2019-01-25T23:51:50.050Z,47.30
2019-01-25T23:54:19.322Z,61.80
2019-01-25T23:56:48.515Z,49.73
2019-01-25T23:59:17.774Z,50.53
